Time;durP1;ratioP1;P1;durP2;ratioP2;P2;SDS_P1;SDS_P2;PMS_P1;PMS_P2;Temp;Humidity;BMP_temperature;BMP_pressure;BME280_temperature;BME280_humidity;BME280_pressure;Samples;Min_cycle;Max_cycle;Signal;HPM_P1;HPM_P2
2022/11/28 00:00:58;;;;;;;46.68;23.20;;;;;;;8.28;87.08;99962.13;4123793;85;28590;-89
2022/11/28 00:07:12;;;;;;;43.05;22.25;;;;;;;8.44;84.44;99964.20;4124702;85;28571;-89
2022/11/28 00:33:10;;;;;;;43.38;22.02;;;;;;;8.32;85.94;99958.53;4255689;80;28620;-88
2022/11/28 00:39:18;;;;;;;43.90;22.55;;;;;;;8.63;84.51;99969.41;4253477;82;28541;-88
2022/11/28 00:45:23;;;;;;;45.58;22.50;;;;;;;8.54;83.87;99963.87;4261413;82;28537;-87
2022/11/28 00:51:31;;;;;;;45.08;22.55;;;;;;;8.47;84.67;99957.10;4278970;83;28572;-92
2022/11/28 00:57:41;;;;;;;44.85;23.05;;;;;;;8.19;85.45;99969.45;4229950;83;28523;-92
2022/11/28 01:03:47;;;;;;;44.50;22.67;;;;;;;8.75;83.30;99965.19;4247453;82;29196;-88
2022/11/28 01:09:49;;;;;;;46.02;21.82;;;;;;;8.48;83.93;99950.72;4257557;82;28534;-89
2022/11/28 01:15:59;;;;;;;42.23;21.15;;;;;;;8.15;85.69;99938.73;4278595;83;28525;-93
2022/11/28 01:22:24;;;;;;;41.00;22.10;;;;;;;8.08;85.88;99936.00;4282414;83;28440;-96
2022/11/28 01:28:29;;;;;;;39.60;21.15;;;;;;;7.92;87.51;99934.91;4225675;84;28545;-92
2022/11/28 01:34:31;;;;;;;42.03;21.68;;;;;;;8.17;86.30;99913.06;4338349;82;28518;-90
2022/11/28 01:40:32;;;;;;;43.63;22.22;;;;;;;7.88;87.56;99904.19;4317396;81;28491;-87
2022/11/28 01:46:35;;;;;;;36.83;21.12;;;;;;;7.73;89.52;99898.38;4291888;81;28489;-87
2022/11/28 01:52:39;;;;;;;43.98;21.95;;;;;;;7.92;87.88;99891.56;4258879;82;28531;-87
2022/11/28 01:58:46;;;;;;;43.42;22.40;;;;;;;7.84;88.02;99881.48;4241750;82;28539;-87
2022/11/28 02:04:49;;;;;;;41.98;20.57;;;;;;;8.03;87.54;99870.64;4254756;82;28581;-87
2022/11/28 02:10:59;;;;;;;41.23;21.30;;;;;;;8.00;86.29;99866.50;4284013;82;28578;-88
2022/11/28 02:17:43;;;;;;;43.48;22.00;;;;;;;8.11;86.12;99857.09;4302081;82;28539;-87
2022/11/28 02:24:40;;;;;;;46.18;22.15;;;;;;;7.90;87.21;99851.27;4221447;82;28598;-88
2022/11/28 02:30:50;;;;;;;38.13;19.40;;;;;;;7.54;88.80;99848.47;4241057;82;28589;-88
2022/11/28 02:36:57;;;;;;;38.88;19.70;;;;;;;7.95;87.54;99855.52;4235987;82;28523;-86
2022/11/28 02:43:25;;;;;;;37.15;19.23;;;;;;;7.63;88.14;99847.01;4271839;81;28530;-85
2022/11/28 02:49:40;;;;;;;37.50;19.48;;;;;;;7.99;86.77;99848.77;4262385;82;28532;-87
2022/11/28 02:55:43;;;;;;;32.55;17.73;;;;;;;7.50;89.54;99846.40;4239059;82;28595;-88
2022/11/28 03:01:44;;;;;;;40.52;19.50;;;;;;;8.21;85.28;99836.14;4190110;82;28532;-87
2022/11/28 03:07:54;;;;;;;36.15;19.10;;;;;;;7.75;89.14;99828.07;4220257;82;28500;-86
2022/11/28 03:14:09;;;;;;;36.17;18.00;;;;;;;8.27;86.20;99835.05;4236751;82;28500;-87
2022/11/28 03:20:25;;;;;;;37.17;18.60;;;;;;;8.19;84.84;99823.45;4219887;82;28526;-85
2022/11/28 03:26:53;;;;;;;34.60;17.82;;;;;;;8.50;83.43;99823.57;4215804;82;28532;-87
2022/11/28 03:32:57;;;;;;;37.78;19.45;;;;;;;7.85;86.49;99814.37;4211498;84;28551;-88
2022/11/28 03:39:12;;;;;;;37.50;18.57;;;;;;;7.85;86.74;99811.69;4201933;83;28550;-86
2022/11/28 03:45:24;;;;;;;34.50;16.87;;;;;;;8.30;85.45;99799.33;4192870;82;28546;-88
2022/11/28 03:51:39;;;;;;;35.80;18.75;;;;;;;8.28;84.52;99804.56;4223520;83;28511;-89
2022/11/28 03:57:58;;;;;;;36.90;18.20;;;;;;;8.36;84.57;99803.87;4224080;83;28522;-86
2022/11/28 04:04:22;;;;;;;34.67;17.87;;;;;;;8.27;85.60;99797.02;4205288;83;28518;-88
2022/11/28 04:10:49;;;;;;;35.70;17.37;;;;;;;7.90;85.90;99803.08;4248413;82;28533;-88
2022/11/28 04:17:19;;;;;;;33.58;17.95;;;;;;;8.45;84.01;99792.50;4242134;82;28557;-89
2022/11/28 04:23:23;;;;;;;35.70;17.42;;;;;;;7.77;86.61;99799.28;4169800;83;28528;-87
2022/11/28 04:29:27;;;;;;;35.70;18.57;;;;;;;7.67;87.99;99790.76;4183651;82;28549;-87
2022/11/28 04:35:36;;;;;;;34.90;18.42;;;;;;;7.95;87.18;99793.44;4147005;84;28544;-88
2022/11/28 04:41:42;;;;;;;30.82;16.80;;;;;;;8.01;86.96;99783.79;4168289;85;28567;-87
2022/11/28 04:47:44;;;;;;;35.73;17.42;;;;;;;8.15;85.36;99780.69;4125130;84;28535;-86
2022/11/28 04:53:57;;;;;;;37.50;18.85;;;;;;;8.01;86.06;99779.77;4147147;84;28522;-88
2022/11/28 05:00:03;;;;;;;33.67;17.50;;;;;;;8.24;84.71;99782.69;4128992;84;29033;-87
2022/11/28 05:06:05;;;;;;;;;;;;;;;8.21;85.55;99781.75;4165424;84;28472;-86
2022/11/28 05:12:07;;;;;;;37.63;18.55;;;;;;;8.13;85.55;99776.05;4166111;84;20609;-87
2022/11/28 05:18:08;;;;;;;35.98;18.20;;;;;;;8.36;83.48;99778.95;4163916;84;28578;-84
2022/11/28 05:24:10;;;;;;;33.90;16.60;;;;;;;8.41;83.04;99774.34;4162047;84;28545;-85
2022/11/28 05:30:12;;;;;;;36.45;17.15;;;;;;;8.01;84.34;99780.27;4156072;84;28550;-86
2022/11/28 05:36:16;;;;;;;29.67;15.72;;;;;;;7.98;85.09;99773.48;4258444;82;28534;-84
2022/11/28 05:42:17;;;;;;;35.25;16.80;;;;;;;7.94;84.60;99771.70;4249856;82;28513;-86
2022/11/28 05:48:18;;;;;;;31.48;16.32;;;;;;;7.96;85.71;99767.47;4236156;82;28509;-87
2022/11/28 05:54:20;;;;;;;28.52;15.75;;;;;;;7.61;86.29;99777.64;4268692;82;28548;-86
2022/11/28 06:00:22;;;;;;;33.45;17.10;;;;;;;7.79;85.84;99775.81;4248085;82;28621;-85
2022/11/28 06:06:25;;;;;;;31.00;16.25;;;;;;;8.15;85.11;99769.14;4270639;82;28467;-88
2022/11/28 06:12:26;;;;;;;32.03;16.23;;;;;;;8.11;84.26;99772.71;4223437;82;28590;-86
2022/11/28 06:18:27;;;;;;;32.95;16.95;;;;;;;8.11;83.40;99774.58;4252586;82;28558;-87
2022/11/28 06:24:29;;;;;;;38.50;21.17;;;;;;;8.35;83.29;99772.75;4210540;82;28620;-84
2022/11/28 06:30:30;;;;;;;40.20;21.37;;;;;;;8.39;82.12;99775.86;4252460;82;28627;-87
2022/11/28 06:36:32;;;;;;;38.17;19.42;;;;;;;8.41;80.66;99781.04;4242718;82;28512;-88
2022/11/28 06:42:35;;;;;;;33.98;17.62;;;;;;;8.36;81.33;99770.91;4237131;82;28533;-88
2022/11/28 06:48:37;;;;;;;28.27;14.95;;;;;;;8.09;83.24;99770.75;4189879;82;28545;-86
2022/11/28 06:54:38;;;;;;;29.23;14.85;;;;;;;8.08;82.23;99777.97;4236366;81;28583;-85
2022/11/28 07:00:40;;;;;;;29.92;14.83;;;;;;;7.53;84.82;99769.74;4234939;82;28573;-87
2022/11/28 07:06:43;;;;;;;29.55;14.30;;;;;;;8.19;83.26;99774.43;4253029;82;28546;-86
2022/11/28 07:12:46;;;;;;;28.05;14.47;;;;;;;7.53;85.82;99774.56;4262738;82;28571;-86
2022/11/28 07:18:49;;;;;;;26.07;13.35;;;;;;;8.48;81.57;99772.50;4248444;82;28540;-86
2022/11/28 07:24:51;;;;;;;26.23;13.70;;;;;;;8.01;82.05;99766.38;4253947;82;28477;-86
2022/11/28 07:31:09;;;;;;;26.82;13.40;;;;;;;8.77;78.67;99761.20;4224847;82;28471;-86
2022/11/28 07:37:12;;;;;;;27.55;14.05;;;;;;;8.83;77.70;99766.27;4199670;82;28509;-87
2022/11/28 07:43:13;;;;;;;30.08;13.45;;;;;;;8.89;76.47;99764.94;4252171;82;28461;-86
2022/11/28 07:49:16;;;;;;;28.50;12.85;;;;;;;9.07;76.32;99766.23;4256805;82;28525;-87
2022/11/28 07:55:18;;;;;;;28.25;14.23;;;;;;;8.42;77.65;99757.23;4206220;82;28574;-87
2022/11/28 08:01:24;;;;;;;26.40;13.20;;;;;;;8.40;79.83;99764.12;4251534;82;28554;-86
2022/11/28 08:07:25;;;;;;;23.65;12.50;;;;;;;8.85;77.32;99759.69;4219668;82;28660;-83
2022/11/28 08:13:28;;;;;;;25.68;12.75;;;;;;;8.25;78.90;99762.09;4235696;82;28530;-86
2022/11/28 08:19:31;;;;;;;23.02;12.05;;;;;;;8.48;80.33;99767.14;4246100;81;28499;-87
2022/11/28 08:25:33;;;;;;;27.40;12.82;;;;;;;9.00;77.34;99756.00;4268694;82;28532;-85
2022/11/28 08:31:38;;;;;;;23.62;12.82;;;;;;;9.05;76.14;99757.57;4256394;82;28548;-86
2022/11/28 08:37:40;;;;;;;24.17;11.67;;;;;;;9.77;73.43;99756.98;4240175;82;28488;-86
2022/11/28 08:43:43;;;;;;;23.75;12.73;;;;;;;9.71;71.19;99760.52;4240581;82;28539;-85
2022/11/28 08:49:45;;;;;;;22.62;12.60;;;;;;;9.68;71.34;99751.00;4243021;82;28500;-88
2022/11/28 08:55:46;;;;;;;24.47;12.20;;;;;;;9.88;70.29;99744.79;4218155;82;28543;-86
2022/11/28 09:01:47;;;;;;;22.22;12.15;;;;;;;10.00;69.21;99740.42;4266034;82;28548;-88
2022/11/28 09:07:50;;;;;;;21.70;12.20;;;;;;;9.93;69.07;99735.57;4267263;82;28522;-87
2022/11/28 09:13:52;;;;;;;23.25;12.78;;;;;;;9.75;69.29;99729.52;4253725;82;28608;-86
2022/11/28 09:19:53;;;;;;;24.92;12.75;;;;;;;10.06;68.66;99717.80;4237999;82;28775;-85
2022/11/28 09:25:55;;;;;;;22.85;12.45;;;;;;;9.82;68.49;99717.41;4240292;82;28509;-86
2022/11/28 09:31:56;;;;;;;22.93;12.70;;;;;;;10.25;67.29;99706.13;4270528;82;28540;-86
2022/11/28 09:37:58;;;;;;;21.68;11.48;;;;;;;10.27;67.87;99697.36;4216279;82;28492;-86
2022/11/28 09:44:38;;;;;;;26.37;12.47;;;;;;;10.21;66.58;99695.52;4253592;82;28524;-86
2022/11/28 09:50:41;;;;;;;25.52;12.82;;;;;;;10.37;66.53;99682.65;4230333;82;28516;-86
2022/11/28 09:56:47;;;;;;;22.60;11.45;;;;;;;10.93;65.87;99672.21;4250410;82;28529;-87
2022/11/28 10:03:17;;;;;;;28.17;13.18;;;;;;;11.21;65.37;99675.81;4299135;81;28482;-86
2022/11/28 10:09:29;;;;;;;26.02;12.18;;;;;;;11.30;64.70;99662.93;4254363;83;28527;-85
2022/11/28 10:16:11;;;;;;;29.57;11.93;;;;;;;10.52;65.43;99661.70;4238929;82;28491;-86
2022/11/28 10:22:17;;;;;;;23.73;11.18;;;;;;;11.34;64.46;99656.05;4257806;82;28531;-87
2022/11/28 10:28:24;;;;;;;22.67;11.73;;;;;;;11.54;63.31;99661.23;4237848;82;28546;-86
2022/11/28 10:34:52;;;;;;;20.25;10.88;;;;;;;10.71;64.28;99655.89;4239861;82;28599;-86
2022/11/28 10:41:23;;;;;;;21.17;11.63;;;;;;;10.71;64.44;99652.39;4256797;82;28556;-86
2022/11/28 10:47:48;;;;;;;18.52;10.13;;;;;;;10.69;64.17;99635.66;4231941;82;28552;-86
2022/11/28 10:54:26;;;;;;;22.22;11.08;;;;;;;10.64;65.25;99634.12;4241715;81;44496;-86
2022/11/28 11:00:27;;;;;;;18.87;9.58;;;;;;;10.33;65.56;99625.80;4227391;82;28570;-87
2022/11/28 11:06:29;;;;;;;20.92;10.45;;;;;;;10.02;66.23;99622.02;4265145;82;28513;-83
2022/11/28 11:12:32;;;;;;;17.73;10.05;;;;;;;9.70;67.32;99616.55;4250867;82;28591;-86
2022/11/28 11:18:45;;;;;;;20.85;10.70;;;;;;;9.69;67.76;99613.03;4256840;82;28507;-86
2022/11/28 11:25:15;;;;;;;21.52;10.48;;;;;;;9.89;67.61;99609.45;4210753;82;28499;-87
2022/11/28 11:31:31;;;;;;;17.05;9.58;;;;;;;9.56;68.43;99605.02;4238850;82;28585;-86
2022/11/28 11:37:34;;;;;;;;;;;;;;;9.48;68.26;99602.05;4249829;82;28499;-86
2022/11/28 11:43:37;;;;;;;19.37;9.78;;;;;;;9.51;67.54;99606.16;4253354;82;20208;-85
2022/11/28 11:49:47;;;;;;;17.37;9.53;;;;;;;9.87;67.29;99603.48;4223727;82;28563;-85
2022/11/28 11:55:52;;;;;;;21.27;9.83;;;;;;;9.82;67.93;99594.72;4238428;82;28475;-86
2022/11/28 12:02:14;;;;;;;19.73;9.77;;;;;;;9.87;68.06;99589.52;4221833;82;28507;-86
2022/11/28 12:08:33;;;;;;;20.25;9.85;;;;;;;10.01;67.13;99594.31;4229864;82;28503;-86
2022/11/28 12:14:37;;;;;;;20.35;10.40;;;;;;;9.90;67.59;99585.08;4230442;82;28554;-86
2022/11/28 12:21:08;;;;;;;17.60;9.20;;;;;;;9.59;68.54;99581.27;4233435;82;28475;-85
2022/11/28 12:27:57;;;;;;;18.55;9.58;;;;;;;9.70;69.18;99575.74;4237656;82;28515;-84
2022/11/28 12:34:22;;;;;;;18.30;9.35;;;;;;;10.08;67.73;99567.41;4246310;82;28511;-87
2022/11/28 12:40:53;;;;;;;20.52;9.50;;;;;;;9.86;67.86;99570.95;4251366;82;43953;-86
2022/11/28 12:47:11;;;;;;;16.37;8.40;;;;;;;9.97;67.53;99572.13;4253269;82;28503;-86
2022/11/28 12:53:55;;;;;;;15.75;8.13;;;;;;;9.99;66.83;99573.56;4232491;82;28581;-86
2022/11/28 13:00:09;;;;;;;16.13;8.13;;;;;;;10.64;65.62;99561.52;4250378;82;28518;-83
2022/11/28 13:06:49;;;;;;;14.80;7.80;;;;;;;10.65;65.35;99564.00;4215850;82;28528;-84
2022/11/28 13:13:15;;;;;;;13.70;7.00;;;;;;;10.36;64.94;99564.05;4282310;82;28520;-86
2022/11/28 13:19:27;;;;;;;15.70;7.50;;;;;;;10.04;65.08;99558.15;4260508;82;28537;-87
2022/11/28 13:26:04;;;;;;;16.75;7.37;;;;;;;9.86;65.93;99557.52;4248501;82;28642;-86
2022/11/28 13:32:44;;;;;;;13.68;6.70;;;;;;;9.78;66.09;99552.38;4191599;82;28526;-86
2022/11/28 13:38:56;;;;;;;11.25;6.10;;;;;;;9.99;66.02;99552.58;4200180;82;28539;-85
2022/11/28 13:45:12;;;;;;;14.68;6.90;;;;;;;9.69;66.49;99554.50;4227951;82;28490;-86
2022/11/28 13:51:21;;;;;;;12.30;6.30;;;;;;;9.74;66.48;99550.13;4252432;82;28525;-86
2022/11/28 13:57:38;;;;;;;12.88;6.08;;;;;;;9.79;66.33;99548.66;4259912;82;28516;-83
2022/11/28 14:04:04;;;;;;;9.95;5.78;;;;;;;9.88;65.30;99544.16;4214837;82;28570;-86
2022/11/28 14:10:23;;;;;;;12.95;5.87;;;;;;;9.76;65.75;99547.22;4218889;82;28618;-86
2022/11/28 14:17:16;;;;;;;13.10;5.92;;;;;;;10.06;65.02;99544.51;4247851;82;28516;-86
2022/11/28 14:23:40;;;;;;;12.58;6.00;;;;;;;9.63;65.47;99542.72;4318836;81;28519;-85
2022/11/28 14:29:47;;;;;;;12.55;7.03;;;;;;;9.65;65.61;99535.30;4284527;82;28583;-85
2022/11/28 14:36:24;;;;;;;12.90;7.08;;;;;;;9.25;66.87;99544.28;4251125;82;28500;-85
2022/11/28 14:42:34;;;;;;;12.23;6.83;;;;;;;9.00;67.56;99537.41;4228830;82;28562;-85
2022/11/28 14:48:38;;;;;;;14.05;6.80;;;;;;;8.90;67.91;99543.20;4241686;82;28458;-85
2022/11/28 14:54:41;;;;;;;15.88;6.92;;;;;;;8.69;68.98;99535.69;4238390;82;28550;-86
2022/11/28 15:00:56;;;;;;;12.82;6.35;;;;;;;8.74;68.93;99535.87;4218891;82;28499;-85
2022/11/28 15:07:01;;;;;;;16.97;6.97;;;;;;;8.59;68.87;99536.61;4261997;82;28586;-86
2022/11/28 15:13:44;;;;;;;17.32;6.85;;;;;;;8.43;69.08;99539.15;4280199;81;28553;-85
2022/11/28 15:19:48;;;;;;;13.30;6.53;;;;;;;8.41;68.83;99540.69;4300535;81;28604;-85
2022/11/28 15:25:56;;;;;;;14.47;7.15;;;;;;;8.32;68.96;99541.91;4302960;81;28470;-85
2022/11/28 15:31:58;;;;;;;18.05;7.33;;;;;;;8.26;70.20;99547.56;4264077;82;28533;-84
2022/11/28 15:38:00;;;;;;;15.95;6.90;;;;;;;8.02;71.44;99539.57;4274201;82;28542;-85
2022/11/28 15:44:02;;;;;;;16.40;7.10;;;;;;;8.27;70.34;99533.67;4267335;81;28527;-87
2022/11/28 15:50:18;;;;;;;15.43;8.03;;;;;;;8.20;70.30;99537.68;4247247;82;28507;-86
2022/11/28 15:56:20;;;;;;;17.62;8.33;;;;;;;8.00;70.91;99532.26;4254376;82;28546;-86
2022/11/28 16:02:32;;;;;;;19.92;9.68;;;;;;;7.99;71.93;99533.29;4272801;82;28539;-87
2022/11/28 16:09:00;;;;;;;21.50;9.65;;;;;;;7.55;73.69;99534.89;4229386;82;28542;-88
2022/11/28 16:15:04;;;;;;;16.97;8.00;;;;;;;7.49;76.13;99542.36;4269065;82;28542;-87
2022/11/28 16:21:09;;;;;;;17.62;7.78;;;;;;;7.29;76.03;99544.45;4269821;82;28522;-86
2022/11/28 16:27:37;;;;;;;17.87;7.40;;;;;;;7.44;75.40;99538.13;4244384;81;28522;-87
2022/11/28 16:33:42;;;;;;;17.15;7.65;;;;;;;7.34;75.89;99538.47;4269248;82;28536;-87
2022/11/28 16:39:44;;;;;;;15.65;8.30;;;;;;;7.32;75.51;99545.38;4197551;84;28626;-82
2022/11/28 16:45:45;;;;;;;14.05;7.62;;;;;;;7.05;77.09;99543.86;4194129;84;28511;-85
2022/11/28 16:51:49;;;;;;;21.17;8.65;;;;;;;7.28;75.37;99553.47;4186996;84;28488;-82
2022/11/28 16:58:06;;;;;;;20.05;9.53;;;;;;;6.92;77.09;99556.63;4153858;84;28534;-82
2022/11/28 17:04:05;;;;;;;21.85;10.38;;;;;;;6.94;77.45;99558.61;4172692;84;28552;-85
2022/11/28 17:10:10;;;;;;;20.37;10.13;;;;;;;6.65;78.49;99559.59;4237881;84;28513;-87
2022/11/28 17:16:21;;;;;;;19.87;10.63;;;;;;;6.76;78.21;99556.92;4181546;84;28595;-87
2022/11/28 17:22:46;;;;;;;21.02;9.58;;;;;;;6.81;78.17;99556.66;4129234;85;28519;-86
2022/11/28 17:28:50;;;;;;;21.97;10.32;;;;;;;6.60;79.09;99564.70;4187999;85;28488;-86
2022/11/28 17:34:51;;;;;;;23.05;10.80;;;;;;;6.43;80.92;99565.48;4187392;82;28539;-86
2022/11/28 17:40:52;;;;;;;21.85;10.82;;;;;;;6.40;82.11;99564.01;4198622;84;28561;-83
2022/11/28 17:46:56;;;;;;;20.77;10.82;;;;;;;6.53;82.07;99565.98;4200972;83;28503;-88
2022/11/28 17:52:58;;;;;;;21.27;10.53;;;;;;;6.43;82.75;99564.14;4160902;84;28577;-83
2022/11/28 17:59:00;;;;;;;21.23;9.95;;;;;;;6.34;83.52;99559.41;4160631;83;28492;-85
2022/11/28 18:05:04;;;;;;;20.05;10.53;;;;;;;6.03;85.05;99561.38;4184048;84;28565;-86
2022/11/28 18:11:11;;;;;;;17.85;10.10;;;;;;;6.24;85.77;99553.06;4189026;83;28540;-85
2022/11/28 18:17:16;;;;;;;20.40;10.40;;;;;;;6.18;85.86;99555.98;4172638;84;28518;-86
2022/11/28 18:23:17;;;;;;;23.95;10.68;;;;;;;6.39;84.00;99552.48;4191324;84;28507;-84
2022/11/28 18:29:19;;;;;;;26.25;12.03;;;;;;;6.02;85.83;99551.72;4174911;84;28631;-83
2022/11/28 18:35:21;;;;;;;22.13;10.70;;;;;;;6.08;85.84;99551.47;4186732;82;28620;-82
2022/11/28 18:41:24;;;;;;;23.62;11.60;;;;;;;6.03;84.84;99560.03;4271148;82;28557;-81
2022/11/28 18:47:28;;;;;;;25.50;12.23;;;;;;;5.65;87.62;99552.16;4264394;82;28570;-82
2022/11/28 18:53:31;;;;;;;24.72;13.00;;;;;;;5.65;87.87;99558.34;4253922;82;28528;-82
2022/11/28 18:59:32;;;;;;;24.55;14.10;;;;;;;5.43;88.52;99548.94;4266883;82;28550;-82
2022/11/28 19:05:39;;;;;;;27.52;14.07;;;;;;;5.18;89.87;99557.70;4270385;82;28491;-85
2022/11/28 19:11:42;;;;;;;28.10;13.53;;;;;;;5.52;87.79;99556.31;4265180;82;28523;-87
2022/11/28 19:17:46;;;;;;;25.62;13.93;;;;;;;5.90;85.77;99550.52;4252604;82;28511;-87
2022/11/28 19:23:49;;;;;;;28.73;13.70;;;;;;;5.49;88.15;99554.52;4276598;82;28502;-88
2022/11/28 19:29:52;;;;;;;29.32;14.15;;;;;;;5.68;87.28;99548.62;4270591;82;28503;-89
2022/11/28 19:36:05;;;;;;;27.77;13.88;;;;;;;5.43;88.19;99561.42;4253728;82;28575;-90
2022/11/28 19:42:15;;;;;;;29.10;14.13;;;;;;;5.57;86.25;99564.61;4238803;82;28525;-92
2022/11/28 19:48:17;;;;;;;28.47;14.63;;;;;;;5.11;88.55;99560.28;4195536;82;28533;-90
2022/11/28 19:54:19;;;;;;;31.87;14.80;;;;;;;4.93;90.09;99562.45;4256278;82;28544;-85
2022/11/28 20:00:23;;;;;;;35.17;16.30;;;;;;;4.81;91.30;99560.72;4237908;82;28502;-87
2022/11/28 20:06:30;;;;;;;34.30;17.17;;;;;;;4.60;92.93;99566.22;4159648;82;28581;-84
2022/11/28 20:12:31;;;;;;;32.65;16.25;;;;;;;4.74;92.71;99566.79;4217226;83;28534;-87
2022/11/28 20:18:39;;;;;;;33.80;15.65;;;;;;;4.82;92.35;99568.55;4223148;82;28538;-85
2022/11/28 20:24:43;;;;;;;29.27;15.28;;;;;;;4.73;92.46;99569.10;4248342;82;28575;-83
2022/11/28 20:30:44;;;;;;;32.65;15.65;;;;;;;4.56;92.78;99572.93;4236871;82;28605;-84
2022/11/28 20:36:51;;;;;;;33.98;16.75;;;;;;;4.71;93.32;99575.64;4252590;82;28511;-86
2022/11/28 20:42:53;;;;;;;34.80;17.10;;;;;;;4.28;94.46;99571.63;4238668;82;28566;-86
2022/11/28 20:48:58;;;;;;;31.70;17.67;;;;;;;4.36;95.51;99569.41;4240743;82;28535;-85
2022/11/28 20:54:59;;;;;;;38.55;18.25;;;;;;;4.51;93.92;99570.80;4232806;82;28594;-86
2022/11/28 21:01:03;;;;;;;37.88;20.40;;;;;;;4.27;94.49;99575.79;4232747;82;28485;-81
2022/11/28 21:07:05;;;;;;;41.37;19.82;;;;;;;4.22;95.57;99572.81;4240680;82;28473;-82
2022/11/28 21:13:08;;;;;;;40.60;21.65;;;;;;;4.51;93.61;99575.28;4236688;82;28587;-85
2022/11/28 21:19:10;;;;;;;36.00;20.80;;;;;;;4.40;92.90;99581.87;4245703;82;28525;-86
2022/11/28 21:25:11;;;;;;;39.18;21.20;;;;;;;4.59;91.27;99580.06;4238622;82;28513;-87
2022/11/28 21:31:18;;;;;;;43.33;20.82;;;;;;;4.53;91.14;99589.23;4242437;82;28549;-87
2022/11/28 21:37:19;;;;;;;40.80;21.37;;;;;;;4.09;93.49;99594.19;4214618;82;28648;-85
2022/11/28 21:43:22;;;;;;;41.30;21.75;;;;;;;4.22;92.75;99592.29;4236481;82;28528;-86
2022/11/28 21:49:23;;;;;;;41.88;21.30;;;;;;;4.23;92.78;99589.95;4242684;82;28503;-86
2022/11/28 21:55:27;;;;;;;40.78;19.50;;;;;;;4.16;93.56;99593.82;4223348;82;28521;-85
2022/11/28 22:01:28;;;;;;;41.60;21.80;;;;;;;4.28;92.53;99599.58;4260403;82;28452;-86
2022/11/28 22:07:29;;;;;;;44.10;21.57;;;;;;;4.18;92.84;99599.79;4226012;82;28500;-86
2022/11/28 22:13:33;;;;;;;37.15;20.17;;;;;;;4.19;92.35;99602.77;4241686;82;28483;-88
2022/11/28 22:19:35;;;;;;;39.75;21.42;;;;;;;4.03;91.56;99601.55;4212291;82;28504;-87
2022/11/28 22:25:36;;;;;;;41.00;21.40;;;;;;;3.86;93.17;99598.96;4249046;82;28573;-87
2022/11/28 22:31:38;;;;;;;41.92;20.62;;;;;;;4.02;93.23;99594.58;4221793;82;28561;-88
2022/11/28 22:37:39;;;;;;;36.88;19.87;;;;;;;4.08;92.20;99596.52;4235558;82;28543;-88
2022/11/28 22:43:41;;;;;;;39.10;19.48;;;;;;;3.83;92.77;99596.66;4236997;82;28491;-87
2022/11/28 22:49:43;;;;;;;38.40;19.48;;;;;;;3.78;92.76;99595.52;4223765;83;28445;-88
2022/11/28 22:55:44;;;;;;;35.68;18.35;;;;;;;3.92;93.66;99596.63;4248646;82;28545;-87
2022/11/28 23:01:45;;;;;;;36.75;17.57;;;;;;;4.05;92.02;99590.23;4263070;82;28471;-84
2022/11/28 23:07:48;;;;;;;37.55;18.07;;;;;;;3.96;91.08;99596.59;4240919;82;28521;-86
2022/11/28 23:13:50;;;;;;;35.85;18.40;;;;;;;3.85;91.29;99599.13;4238083;83;28527;-85
2022/11/28 23:19:52;;;;;;;39.40;19.62;;;;;;;3.93;91.15;99600.94;4222190;82;28506;-87
2022/11/28 23:25:54;;;;;;;39.38;20.57;;;;;;;3.58;94.07;99601.24;4217916;82;28618;-86
2022/11/28 23:31:55;;;;;;;36.10;18.73;;;;;;;3.65;94.13;99595.58;4244381;82;28515;-86
2022/11/28 23:37:59;;;;;;;40.45;19.40;;;;;;;3.55;93.71;99592.29;4239474;82;28523;-86
2022/11/28 23:44:00;;;;;;;38.98;20.02;;;;;;;3.78;93.66;99588.87;4240708;82;28481;-86
2022/11/28 23:50:03;;;;;;;40.12;21.02;;;;;;;3.57;95.18;99589.77;4218324;82;28538;-87
2022/11/28 23:56:14;;;;;;;43.65;22.98;;;;;;;3.41;95.23;99585.33;4234708;82;28545;-87
